sensor_id;sensor_type;location;lat;lon;timestamp;P1;durP1;ratioP1;P2;durP2;ratioP2
72109;SDS011;59983;52.010;5.420;2023-08-31T00:02:25;6.25;;;5.95;;
72109;SDS011;59983;52.010;5.420;2023-08-31T00:04:52;6.25;;;5.75;;
72109;SDS011;59983;52.010;5.420;2023-08-31T00:07:22;5.45;;;5.25;;
72109;SDS011;59983;52.010;5.420;2023-08-31T00:09:48;4.67;;;4.37;;
72109;SDS011;59983;52.010;5.420;2023-08-31T00:12:16;4.97;;;4.68;;
72109;SDS011;59983;52.010;5.420;2023-08-31T00:14:42;5.07;;;4.78;;
72109;SDS011;59983;52.010;5.420;2023-08-31T00:17:09;5.60;;;5.30;;
72109;SDS011;59983;52.010;5.420;2023-08-31T00:19:35;5.20;;;4.80;;
72109;SDS011;59983;52.010;5.420;2023-08-31T00:22:02;4.90;;;4.60;;
72109;SDS011;59983;52.010;5.420;2023-08-31T00:24:30;6.13;;;5.05;;
72109;SDS011;59983;52.010;5.420;2023-08-31T00:26:58;4.88;;;4.60;;
72109;SDS011;59983;52.010;5.420;2023-08-31T00:29:25;6.07;;;5.78;;
72109;SDS011;59983;52.010;5.420;2023-08-31T00:31:51;6.15;;;5.65;;
72109;SDS011;59983;52.010;5.420;2023-08-31T00:34:19;5.77;;;5.33;;
72109;SDS011;59983;52.010;5.420;2023-08-31T00:36:46;5.90;;;5.50;;
72109;SDS011;59983;52.010;5.420;2023-08-31T00:39:13;6.07;;;5.68;;
72109;SDS011;59983;52.010;5.420;2023-08-31T00:41:39;6.38;;;5.78;;
72109;SDS011;59983;52.010;5.420;2023-08-31T00:44:06;6.18;;;5.68;;
72109;SDS011;59983;52.010;5.420;2023-08-31T00:46:34;6.73;;;6.13;;
72109;SDS011;59983;52.010;5.420;2023-08-31T00:49:01;6.32;;;5.75;;
72109;SDS011;59983;52.010;5.420;2023-08-31T00:51:31;6.82;;;5.85;;
72109;SDS011;59983;52.010;5.420;2023-08-31T00:53:58;7.15;;;6.45;;
72109;SDS011;59983;52.010;5.420;2023-08-31T00:56:25;7.07;;;6.38;;
72109;SDS011;59983;52.010;5.420;2023-08-31T00:58:52;7.80;;;7.20;;
72109;SDS011;59983;52.010;5.420;2023-08-31T01:01:25;7.65;;;6.75;;
72109;SDS011;59983;52.010;5.420;2023-08-31T01:07:21;7.90;;;7.30;;
72109;SDS011;59983;52.010;5.420;2023-08-31T01:13:09;7.37;;;6.77;;
72109;SDS011;59983;52.010;5.420;2023-08-31T01:15:41;7.82;;;7.13;;
72109;SDS011;59983;52.010;5.420;2023-08-31T01:18:13;12.85;;;8.98;;
72109;SDS011;59983;52.010;5.420;2023-08-31T01:20:50;9.52;;;8.70;;
72109;SDS011;59983;52.010;5.420;2023-08-31T01:23:27;13.40;;;9.15;;
72109;SDS011;59983;52.010;5.420;2023-08-31T01:25:56;9.40;;;8.47;;
72109;SDS011;59983;52.010;5.420;2023-08-31T01:28:24;11.07;;;10.02;;
72109;SDS011;59983;52.010;5.420;2023-08-31T01:30:51;16.95;;;10.52;;
72109;SDS011;59983;52.010;5.420;2023-08-31T01:33:17;11.95;;;10.07;;
72109;SDS011;59983;52.010;5.420;2023-08-31T01:35:45;11.85;;;10.77;;
72109;SDS011;59983;52.010;5.420;2023-08-31T01:38:18;12.30;;;10.63;;
72109;SDS011;59983;52.010;5.420;2023-08-31T01:40:55;12.40;;;9.73;;
72109;SDS011;59983;52.010;5.420;2023-08-31T01:43:27;11.43;;;10.23;;
72109;SDS011;59983;52.010;5.420;2023-08-31T01:45:54;10.52;;;9.55;;
72109;SDS011;59983;52.010;5.420;2023-08-31T01:48:22;16.75;;;11.27;;
72109;SDS011;59983;52.010;5.420;2023-08-31T01:50:48;12.97;;;10.90;;
72109;SDS011;59983;52.010;5.420;2023-08-31T01:53:15;11.65;;;10.48;;
72109;SDS011;59983;52.010;5.420;2023-08-31T01:55:41;12.75;;;11.13;;
72109;SDS011;59983;52.010;5.420;2023-08-31T01:58:08;11.90;;;10.88;;
72109;SDS011;59983;52.010;5.420;2023-08-31T02:00:34;12.90;;;11.60;;
72109;SDS011;59983;52.010;5.420;2023-08-31T02:03:01;10.83;;;9.80;;
72109;SDS011;59983;52.010;5.420;2023-08-31T02:05:28;10.75;;;9.65;;
72109;SDS011;59983;52.010;5.420;2023-08-31T02:07:55;10.43;;;9.43;;
72109;SDS011;59983;52.010;5.420;2023-08-31T02:10:22;13.63;;;11.00;;
72109;SDS011;59983;52.010;5.420;2023-08-31T02:12:48;11.60;;;10.30;;
72109;SDS011;59983;52.010;5.420;2023-08-31T02:15:15;11.97;;;10.13;;
72109;SDS011;59983;52.010;5.420;2023-08-31T02:17:41;11.52;;;10.43;;
72109;SDS011;59983;52.010;5.420;2023-08-31T02:20:09;11.98;;;10.55;;
72109;SDS011;59983;52.010;5.420;2023-08-31T02:22:36;11.25;;;10.18;;
72109;SDS011;59983;52.010;5.420;2023-08-31T02:25:03;10.68;;;9.77;;
72109;SDS011;59983;52.010;5.420;2023-08-31T02:27:30;9.00;;;8.30;;
72109;SDS011;59983;52.010;5.420;2023-08-31T02:29:56;10.70;;;9.73;;
72109;SDS011;59983;52.010;5.420;2023-08-31T02:32:23;9.55;;;8.57;;
72109;SDS011;59983;52.010;5.420;2023-08-31T02:34:50;9.70;;;8.45;;
72109;SDS011;59983;52.010;5.420;2023-08-31T02:37:16;9.48;;;8.73;;
72109;SDS011;59983;52.010;5.420;2023-08-31T02:39:43;9.50;;;8.73;;
72109;SDS011;59983;52.010;5.420;2023-08-31T02:42:09;10.75;;;8.48;;
72109;SDS011;59983;52.010;5.420;2023-08-31T02:44:36;10.23;;;9.23;;
72109;SDS011;59983;52.010;5.420;2023-08-31T02:47:03;9.15;;;8.25;;
72109;SDS011;59983;52.010;5.420;2023-08-31T02:49:29;9.32;;;8.57;;
72109;SDS011;59983;52.010;5.420;2023-08-31T02:51:56;8.10;;;7.43;;
72109;SDS011;59983;52.010;5.420;2023-08-31T02:54:22;8.63;;;7.82;;
72109;SDS011;59983;52.010;5.420;2023-08-31T02:56:49;7.40;;;6.82;;
72109;SDS011;59983;52.010;5.420;2023-08-31T02:59:16;7.03;;;6.43;;
72109;SDS011;59983;52.010;5.420;2023-08-31T03:01:43;7.28;;;6.57;;
72109;SDS011;59983;52.010;5.420;2023-08-31T03:04:12;7.23;;;6.73;;
72109;SDS011;59983;52.010;5.420;2023-08-31T03:06:39;6.63;;;6.10;;
72109;SDS011;59983;52.010;5.420;2023-08-31T03:09:05;7.40;;;6.00;;
72109;SDS011;59983;52.010;5.420;2023-08-31T03:11:32;5.75;;;5.25;;
72109;SDS011;59983;52.010;5.420;2023-08-31T03:13:58;5.80;;;5.22;;
72109;SDS011;59983;52.010;5.420;2023-08-31T03:16:25;5.77;;;5.20;;
72109;SDS011;59983;52.010;5.420;2023-08-31T03:18:52;5.65;;;5.13;;
72109;SDS011;59983;52.010;5.420;2023-08-31T03:21:18;6.70;;;5.72;;
72109;SDS011;59983;52.010;5.420;2023-08-31T03:23:46;6.28;;;5.70;;
72109;SDS011;59983;52.010;5.420;2023-08-31T03:26:12;9.93;;;6.57;;
72109;SDS011;59983;52.010;5.420;2023-08-31T03:28:39;6.77;;;6.27;;
72109;SDS011;59983;52.010;5.420;2023-08-31T03:31:07;6.95;;;6.35;;
72109;SDS011;59983;52.010;5.420;2023-08-31T03:33:33;7.95;;;7.20;;
72109;SDS011;59983;52.010;5.420;2023-08-31T03:36:01;8.63;;;5.93;;
72109;SDS011;59983;52.010;5.420;2023-08-31T03:38:31;6.93;;;6.43;;
72109;SDS011;59983;52.010;5.420;2023-08-31T03:40:57;7.10;;;6.57;;
72109;SDS011;59983;52.010;5.420;2023-08-31T03:43:24;6.90;;;6.40;;
72109;SDS011;59983;52.010;5.420;2023-08-31T03:45:54;7.75;;;7.05;;
72109;SDS011;59983;52.010;5.420;2023-08-31T03:48:24;6.70;;;6.20;;
72109;SDS011;59983;52.010;5.420;2023-08-31T03:50:52;7.18;;;6.68;;
72109;SDS011;59983;52.010;5.420;2023-08-31T03:53:19;6.93;;;6.27;;
72109;SDS011;59983;52.010;5.420;2023-08-31T03:55:46;7.28;;;6.75;;
72109;SDS011;59983;52.010;5.420;2023-08-31T03:58:12;8.07;;;7.30;;
72109;SDS011;59983;52.010;5.420;2023-08-31T04:00:39;8.95;;;7.53;;
72109;SDS011;59983;52.010;5.420;2023-08-31T04:03:06;7.53;;;6.85;;
72109;SDS011;59983;52.010;5.420;2023-08-31T04:05:33;9.53;;;7.43;;
72109;SDS011;59983;52.010;5.420;2023-08-31T04:08:00;9.77;;;8.88;;
72109;SDS011;59983;52.010;5.420;2023-08-31T04:10:27;11.95;;;10.95;;
72109;SDS011;59983;52.010;5.420;2023-08-31T04:12:56;13.27;;;11.98;;
72109;SDS011;59983;52.010;5.420;2023-08-31T04:15:22;14.45;;;13.05;;
72109;SDS011;59983;52.010;5.420;2023-08-31T04:17:49;20.63;;;15.80;;
72109;SDS011;59983;52.010;5.420;2023-08-31T04:20:18;17.80;;;16.17;;
72109;SDS011;59983;52.010;5.420;2023-08-31T04:22:45;16.73;;;15.10;;
72109;SDS011;59983;52.010;5.420;2023-08-31T04:25:12;19.65;;;16.45;;
72109;SDS011;59983;52.010;5.420;2023-08-31T04:27:38;21.05;;;17.17;;
72109;SDS011;59983;52.010;5.420;2023-08-31T04:30:06;18.57;;;16.97;;
72109;SDS011;59983;52.010;5.420;2023-08-31T04:32:33;18.23;;;16.42;;
72109;SDS011;59983;52.010;5.420;2023-08-31T04:35:02;18.85;;;16.92;;
72109;SDS011;59983;52.010;5.420;2023-08-31T04:37:32;18.98;;;17.20;;
72109;SDS011;59983;52.010;5.420;2023-08-31T04:39:59;19.80;;;17.75;;
72109;SDS011;59983;52.010;5.420;2023-08-31T04:42:26;18.10;;;16.20;;
72109;SDS011;59983;52.010;5.420;2023-08-31T04:44:52;26.30;;;16.83;;
72109;SDS011;59983;52.010;5.420;2023-08-31T04:47:19;19.98;;;17.98;;
72109;SDS011;59983;52.010;5.420;2023-08-31T04:49:45;19.15;;;17.35;;
72109;SDS011;59983;52.010;5.420;2023-08-31T04:52:12;19.30;;;17.27;;
72109;SDS011;59983;52.010;5.420;2023-08-31T04:54:39;24.07;;;16.87;;
72109;SDS011;59983;52.010;5.420;2023-08-31T04:57:05;18.98;;;16.88;;
72109;SDS011;59983;52.010;5.420;2023-08-31T04:59:33;21.58;;;19.30;;
72109;SDS011;59983;52.010;5.420;2023-08-31T05:02:00;20.65;;;18.50;;
72109;SDS011;59983;52.010;5.420;2023-08-31T05:04:26;22.13;;;19.13;;
72109;SDS011;59983;52.010;5.420;2023-08-31T05:06:55;22.33;;;19.70;;
72109;SDS011;59983;52.010;5.420;2023-08-31T05:09:23;22.10;;;19.80;;
72109;SDS011;59983;52.010;5.420;2023-08-31T05:11:50;22.17;;;19.95;;
72109;SDS011;59983;52.010;5.420;2023-08-31T05:14:16;22.67;;;19.98;;
72109;SDS011;59983;52.010;5.420;2023-08-31T05:16:44;25.85;;;20.05;;
72109;SDS011;59983;52.010;5.420;2023-08-31T05:19:11;32.47;;;23.50;;
72109;SDS011;59983;52.010;5.420;2023-08-31T05:21:38;26.88;;;22.42;;
72109;SDS011;59983;52.010;5.420;2023-08-31T05:24:05;23.70;;;21.30;;
72109;SDS011;59983;52.010;5.420;2023-08-31T05:26:31;27.85;;;21.92;;
72109;SDS011;59983;52.010;5.420;2023-08-31T05:28:58;28.13;;;24.23;;
72109;SDS011;59983;52.010;5.420;2023-08-31T05:31:25;25.50;;;22.90;;
72109;SDS011;59983;52.010;5.420;2023-08-31T05:33:51;28.17;;;23.05;;
72109;SDS011;59983;52.010;5.420;2023-08-31T05:36:18;26.15;;;22.25;;
72109;SDS011;59983;52.010;5.420;2023-08-31T05:38:45;27.10;;;23.33;;
72109;SDS011;59983;52.010;5.420;2023-08-31T05:41:11;24.52;;;21.92;;
72109;SDS011;59983;52.010;5.420;2023-08-31T05:43:38;26.87;;;22.13;;
72109;SDS011;59983;52.010;5.420;2023-08-31T05:46:08;24.80;;;21.90;;
72109;SDS011;59983;52.010;5.420;2023-08-31T05:48:35;25.98;;;20.52;;
72109;SDS011;59983;52.010;5.420;2023-08-31T05:51:02;26.60;;;22.17;;
72109;SDS011;59983;52.010;5.420;2023-08-31T05:53:32;32.20;;;24.17;;
72109;SDS011;59983;52.010;5.420;2023-08-31T05:55:59;31.13;;;25.17;;
72109;SDS011;59983;52.010;5.420;2023-08-31T05:58:33;29.42;;;23.88;;
72109;SDS011;59983;52.010;5.420;2023-08-31T06:01:01;27.30;;;24.10;;
72109;SDS011;59983;52.010;5.420;2023-08-31T06:03:29;29.52;;;23.95;;
72109;SDS011;59983;52.010;5.420;2023-08-31T06:05:57;29.67;;;24.60;;
72109;SDS011;59983;52.010;5.420;2023-08-31T06:08:25;29.57;;;24.93;;
72109;SDS011;59983;52.010;5.420;2023-08-31T06:10:51;28.60;;;24.65;;
72109;SDS011;59983;52.010;5.420;2023-08-31T06:13:18;28.55;;;25.52;;
72109;SDS011;59983;52.010;5.420;2023-08-31T06:15:44;28.52;;;24.80;;
72109;SDS011;59983;52.010;5.420;2023-08-31T06:18:11;29.27;;;25.98;;
72109;SDS011;59983;52.010;5.420;2023-08-31T06:20:38;31.43;;;26.80;;
72109;SDS011;59983;52.010;5.420;2023-08-31T06:23:04;36.53;;;27.30;;
72109;SDS011;59983;52.010;5.420;2023-08-31T06:25:31;28.85;;;25.95;;
72109;SDS011;59983;52.010;5.420;2023-08-31T06:27:58;27.95;;;25.10;;
72109;SDS011;59983;52.010;5.420;2023-08-31T06:30:24;32.70;;;25.17;;
72109;SDS011;59983;52.010;5.420;2023-08-31T06:32:51;37.57;;;26.00;;
72109;SDS011;59983;52.010;5.420;2023-08-31T06:35:17;29.92;;;26.48;;
72109;SDS011;59983;52.010;5.420;2023-08-31T06:37:47;28.95;;;25.85;;
72109;SDS011;59983;52.010;5.420;2023-08-31T06:40:14;27.90;;;24.95;;
72109;SDS011;59983;52.010;5.420;2023-08-31T06:42:40;31.02;;;26.83;;
72109;SDS011;59983;52.010;5.420;2023-08-31T06:45:07;31.33;;;25.43;;
72109;SDS011;59983;52.010;5.420;2023-08-31T06:47:34;25.58;;;23.05;;
72109;SDS011;59983;52.010;5.420;2023-08-31T06:50:01;27.02;;;23.65;;
72109;SDS011;59983;52.010;5.420;2023-08-31T06:52:29;25.35;;;22.73;;
72109;SDS011;59983;52.010;5.420;2023-08-31T06:54:58;23.42;;;21.02;;
72109;SDS011;59983;52.010;5.420;2023-08-31T06:57:25;23.43;;;20.13;;
72109;SDS011;59983;52.010;5.420;2023-08-31T06:59:53;22.92;;;20.52;;
72109;SDS011;59983;52.010;5.420;2023-08-31T07:02:20;27.10;;;21.13;;
72109;SDS011;59983;52.010;5.420;2023-08-31T07:04:48;23.35;;;19.73;;
72109;SDS011;59983;52.010;5.420;2023-08-31T07:07:16;23.98;;;18.70;;
72109;SDS011;59983;52.010;5.420;2023-08-31T07:09:42;22.37;;;20.03;;
72109;SDS011;59983;52.010;5.420;2023-08-31T07:12:10;23.25;;;19.15;;
72109;SDS011;59983;52.010;5.420;2023-08-31T07:14:36;21.85;;;19.50;;
72109;SDS011;59983;52.010;5.420;2023-08-31T07:17:04;22.70;;;20.27;;
72109;SDS011;59983;52.010;5.420;2023-08-31T07:19:30;20.92;;;17.45;;
72109;SDS011;59983;52.010;5.420;2023-08-31T07:21:57;20.40;;;18.23;;
72109;SDS011;59983;52.010;5.420;2023-08-31T07:24:25;21.08;;;18.77;;
72109;SDS011;59983;52.010;5.420;2023-08-31T07:26:52;20.50;;;18.38;;
72109;SDS011;59983;52.010;5.420;2023-08-31T07:29:18;20.65;;;17.98;;
72109;SDS011;59983;52.010;5.420;2023-08-31T07:31:45;19.98;;;17.23;;
72109;SDS011;59983;52.010;5.420;2023-08-31T07:34:12;17.03;;;15.40;;
72109;SDS011;59983;52.010;5.420;2023-08-31T07:36:39;17.20;;;15.38;;
72109;SDS011;59983;52.010;5.420;2023-08-31T07:39:05;17.33;;;15.55;;
72109;SDS011;59983;52.010;5.420;2023-08-31T07:41:33;20.17;;;15.57;;
72109;SDS011;59983;52.010;5.420;2023-08-31T07:44:00;17.67;;;15.88;;
72109;SDS011;59983;52.010;5.420;2023-08-31T07:46:30;15.33;;;13.90;;
72109;SDS011;59983;52.010;5.420;2023-08-31T07:48:57;17.73;;;15.85;;
72109;SDS011;59983;52.010;5.420;2023-08-31T07:51:24;18.08;;;16.17;;
72109;SDS011;59983;52.010;5.420;2023-08-31T07:53:52;17.67;;;15.98;;
72109;SDS011;59983;52.010;5.420;2023-08-31T07:56:18;18.90;;;16.70;;
72109;SDS011;59983;52.010;5.420;2023-08-31T07:58:45;24.20;;;17.37;;
72109;SDS011;59983;52.010;5.420;2023-08-31T08:01:12;17.30;;;15.45;;
72109;SDS011;59983;52.010;5.420;2023-08-31T08:03:39;18.02;;;15.98;;
72109;SDS011;59983;52.010;5.420;2023-08-31T08:06:06;16.48;;;14.88;;
72109;SDS011;59983;52.010;5.420;2023-08-31T08:08:32;15.73;;;14.27;;
72109;SDS011;59983;52.010;5.420;2023-08-31T08:10:59;15.93;;;14.07;;
72109;SDS011;59983;52.010;5.420;2023-08-31T08:13:26;15.32;;;14.00;;
72109;SDS011;59983;52.010;5.420;2023-08-31T08:15:52;15.68;;;13.70;;
72109;SDS011;59983;52.010;5.420;2023-08-31T08:18:19;15.48;;;14.10;;
72109;SDS011;59983;52.010;5.420;2023-08-31T08:20:52;15.38;;;13.82;;
72109;SDS011;59983;52.010;5.420;2023-08-31T08:23:19;16.87;;;13.90;;
72109;SDS011;59983;52.010;5.420;2023-08-31T08:25:48;15.52;;;13.82;;
72109;SDS011;59983;52.010;5.420;2023-08-31T08:28:14;20.00;;;13.43;;
72109;SDS011;59983;52.010;5.420;2023-08-31T08:30:41;16.17;;;13.43;;
72109;SDS011;59983;52.010;5.420;2023-08-31T08:33:08;15.02;;;13.13;;
72109;SDS011;59983;52.010;5.420;2023-08-31T08:35:36;14.67;;;13.07;;
72109;SDS011;59983;52.010;5.420;2023-08-31T08:38:04;15.32;;;12.73;;
72109;SDS011;59983;52.010;5.420;2023-08-31T08:40:31;14.65;;;12.25;;
72109;SDS011;59983;52.010;5.420;2023-08-31T08:43:00;13.13;;;11.77;;
72109;SDS011;59983;52.010;5.420;2023-08-31T08:45:30;13.00;;;11.90;;
72109;SDS011;59983;52.010;5.420;2023-08-31T08:48:04;12.10;;;9.70;;
72109;SDS011;59983;52.010;5.420;2023-08-31T08:50:32;16.25;;;11.55;;
72109;SDS011;59983;52.010;5.420;2023-08-31T08:53:03;12.60;;;11.32;;
72109;SDS011;59983;52.010;5.420;2023-08-31T08:55:31;10.63;;;8.40;;
72109;SDS011;59983;52.010;5.420;2023-08-31T08:57:58;9.35;;;8.35;;
72109;SDS011;59983;52.010;5.420;2023-08-31T09:00:29;8.40;;;7.53;;
72109;SDS011;59983;52.010;5.420;2023-08-31T09:02:56;7.78;;;6.28;;
72109;SDS011;59983;52.010;5.420;2023-08-31T09:05:22;7.75;;;7.07;;
72109;SDS011;59983;52.010;5.420;2023-08-31T09:10:39;7.93;;;7.20;;
72109;SDS011;59983;52.010;5.420;2023-08-31T09:13:10;9.83;;;7.80;;
72109;SDS011;59983;52.010;5.420;2023-08-31T09:15:45;6.97;;;6.32;;
72109;SDS011;59983;52.010;5.420;2023-08-31T09:18:24;6.72;;;6.22;;
72109;SDS011;59983;52.010;5.420;2023-08-31T09:20:51;7.63;;;6.97;;
72109;SDS011;59983;52.010;5.420;2023-08-31T09:23:18;6.85;;;5.43;;
72109;SDS011;59983;52.010;5.420;2023-08-31T09:25:45;9.87;;;5.53;;
72109;SDS011;59983;52.010;5.420;2023-08-31T09:28:15;9.77;;;6.22;;
72109;SDS011;59983;52.010;5.420;2023-08-31T09:30:44;5.65;;;5.20;;
72109;SDS011;59983;52.010;5.420;2023-08-31T09:33:14;6.45;;;5.82;;
72109;SDS011;59983;52.010;5.420;2023-08-31T09:35:47;6.70;;;4.80;;
72109;SDS011;59983;52.010;5.420;2023-08-31T09:38:18;4.90;;;4.20;;
72109;SDS011;59983;52.010;5.420;2023-08-31T09:40:45;8.80;;;4.25;;
72109;SDS011;59983;52.010;5.420;2023-08-31T09:43:12;4.43;;;3.42;;
72109;SDS011;59983;52.010;5.420;2023-08-31T09:45:44;5.05;;;3.30;;
72109;SDS011;59983;52.010;5.420;2023-08-31T09:48:12;5.00;;;4.05;;
72109;SDS011;59983;52.010;5.420;2023-08-31T09:50:42;3.73;;;3.27;;
72109;SDS011;59983;52.010;5.420;2023-08-31T09:53:11;3.70;;;3.30;;
72109;SDS011;59983;52.010;5.420;2023-08-31T09:55:39;7.82;;;3.63;;
72109;SDS011;59983;52.010;5.420;2023-08-31T09:58:07;5.53;;;3.95;;
72109;SDS011;59983;52.010;5.420;2023-08-31T10:00:42;3.85;;;3.40;;
72109;SDS011;59983;52.010;5.420;2023-08-31T10:03:09;3.50;;;3.20;;
72109;SDS011;59983;52.010;5.420;2023-08-31T10:05:43;2.60;;;2.40;;
72109;SDS011;59983;52.010;5.420;2023-08-31T10:08:12;3.53;;;2.60;;
72109;SDS011;59983;52.010;5.420;2023-08-31T10:10:39;3.05;;;2.78;;
72109;SDS011;59983;52.010;5.420;2023-08-31T10:13:06;2.45;;;2.35;;
72109;SDS011;59983;52.010;5.420;2023-08-31T10:15:36;4.20;;;2.10;;
72109;SDS011;59983;52.010;5.420;2023-08-31T10:18:04;7.57;;;2.58;;
72109;SDS011;59983;52.010;5.420;2023-08-31T10:20:32;2.42;;;2.33;;
72109;SDS011;59983;52.010;5.420;2023-08-31T10:23:03;4.78;;;2.33;;
72109;SDS011;59983;52.010;5.420;2023-08-31T10:26:14;3.00;;;2.28;;
72109;SDS011;59983;52.010;5.420;2023-08-31T10:28:22;2.93;;;2.73;;
72109;SDS011;59983;52.010;5.420;2023-08-31T10:33:42;2.85;;;2.10;;
72109;SDS011;59983;52.010;5.420;2023-08-31T10:36:12;2.03;;;1.90;;
72109;SDS011;59983;52.010;5.420;2023-08-31T10:38:46;1.80;;;1.70;;
72109;SDS011;59983;52.010;5.420;2023-08-31T10:41:29;2.87;;;2.00;;
72109;SDS011;59983;52.010;5.420;2023-08-31T10:44:00;2.88;;;1.90;;
72109;SDS011;59983;52.010;5.420;2023-08-31T10:46:42;6.18;;;2.40;;
72109;SDS011;59983;52.010;5.420;2023-08-31T10:51:55;2.28;;;2.00;;
72109;SDS011;59983;52.010;5.420;2023-08-31T10:54:33;3.13;;;2.23;;
72109;SDS011;59983;52.010;5.420;2023-08-31T10:57:04;4.32;;;2.55;;
72109;SDS011;59983;52.010;5.420;2023-08-31T10:59:44;3.03;;;2.33;;
72109;SDS011;59983;52.010;5.420;2023-08-31T11:05:18;2.20;;;2.00;;
72109;SDS011;59983;52.010;5.420;2023-08-31T11:07:49;2.60;;;2.40;;
72109;SDS011;59983;52.010;5.420;2023-08-31T11:10:23;3.95;;;2.30;;
72109;SDS011;59983;52.010;5.420;2023-08-31T11:12:54;3.45;;;2.15;;
72109;SDS011;59983;52.010;5.420;2023-08-31T11:15:25;2.05;;;1.85;;
72109;SDS011;59983;52.010;5.420;2023-08-31T11:17:53;3.88;;;2.40;;
72109;SDS011;59983;52.010;5.420;2023-08-31T11:20:21;2.60;;;2.43;;
72109;SDS011;59983;52.010;5.420;2023-08-31T11:22:50;4.57;;;2.10;;
72109;SDS011;59983;52.010;5.420;2023-08-31T11:25:19;4.13;;;1.83;;
72109;SDS011;59983;52.010;5.420;2023-08-31T11:27:54;2.55;;;1.60;;
72109;SDS011;59983;52.010;5.420;2023-08-31T11:30:22;2.25;;;1.80;;
72109;SDS011;59983;52.010;5.420;2023-08-31T11:32:50;3.93;;;2.20;;
72109;SDS011;59983;52.010;5.420;2023-08-31T11:35:18;1.77;;;1.67;;
72109;SDS011;59983;52.010;5.420;2023-08-31T11:37:50;2.60;;;2.05;;
72109;SDS011;59983;52.010;5.420;2023-08-31T11:40:18;2.42;;;2.20;;
72109;SDS011;59983;52.010;5.420;2023-08-31T11:42:45;2.15;;;2.00;;
72109;SDS011;59983;52.010;5.420;2023-08-31T11:45:13;1.97;;;1.87;;
72109;SDS011;59983;52.010;5.420;2023-08-31T11:47:41;2.25;;;1.65;;
72109;SDS011;59983;52.010;5.420;2023-08-31T11:50:10;6.38;;;2.03;;
72109;SDS011;59983;52.010;5.420;2023-08-31T11:52:38;2.35;;;2.08;;
72109;SDS011;59983;52.010;5.420;2023-08-31T11:55:09;2.38;;;2.15;;
72109;SDS011;59983;52.010;5.420;2023-08-31T11:57:37;2.00;;;1.90;;
72109;SDS011;59983;52.010;5.420;2023-08-31T12:00:04;3.53;;;2.13;;
72109;SDS011;59983;52.010;5.420;2023-08-31T12:02:35;2.45;;;2.25;;
72109;SDS011;59983;52.010;5.420;2023-08-31T12:05:02;3.15;;;2.00;;
72109;SDS011;59983;52.010;5.420;2023-08-31T12:07:31;3.85;;;2.58;;
72109;SDS011;59983;52.010;5.420;2023-08-31T12:10:04;3.93;;;2.30;;
72109;SDS011;59983;52.010;5.420;2023-08-31T12:12:31;4.35;;;1.92;;
72109;SDS011;59983;52.010;5.420;2023-08-31T12:15:01;2.53;;;2.05;;
72109;SDS011;59983;52.010;5.420;2023-08-31T12:17:31;3.05;;;2.00;;
72109;SDS011;59983;52.010;5.420;2023-08-31T12:20:02;2.28;;;1.95;;
72109;SDS011;59983;52.010;5.420;2023-08-31T12:22:31;2.60;;;1.73;;
72109;SDS011;59983;52.010;5.420;2023-08-31T12:24:57;2.55;;;2.00;;
72109;SDS011;59983;52.010;5.420;2023-08-31T12:27:24;3.03;;;2.05;;
72109;SDS011;59983;52.010;5.420;2023-08-31T12:29:50;4.32;;;2.05;;
72109;SDS011;59983;52.010;5.420;2023-08-31T12:32:17;2.83;;;2.53;;
72109;SDS011;59983;52.010;5.420;2023-08-31T12:34:46;2.37;;;2.00;;
72109;SDS011;59983;52.010;5.420;2023-08-31T12:37:13;2.75;;;1.85;;
72109;SDS011;59983;52.010;5.420;2023-08-31T12:39:39;2.85;;;2.20;;
72109;SDS011;59983;52.010;5.420;2023-08-31T12:42:08;4.75;;;2.47;;
72109;SDS011;59983;52.010;5.420;2023-08-31T12:44:49;1.95;;;1.85;;
72109;SDS011;59983;52.010;5.420;2023-08-31T12:47:15;2.57;;;1.93;;
72109;SDS011;59983;52.010;5.420;2023-08-31T12:49:42;5.00;;;2.05;;
72109;SDS011;59983;52.010;5.420;2023-08-31T12:52:08;3.35;;;2.00;;
72109;SDS011;59983;52.010;5.420;2023-08-31T12:54:35;3.47;;;1.63;;
72109;SDS011;59983;52.010;5.420;2023-08-31T12:57:01;2.08;;;1.70;;
72109;SDS011;59983;52.010;5.420;2023-08-31T12:59:29;4.03;;;1.93;;
72109;SDS011;59983;52.010;5.420;2023-08-31T13:01:55;2.70;;;1.70;;
72109;SDS011;59983;52.010;5.420;2023-08-31T13:04:22;3.42;;;1.52;;
72109;SDS011;59983;52.010;5.420;2023-08-31T13:06:48;2.13;;;1.40;;
72109;SDS011;59983;52.010;5.420;2023-08-31T13:09:15;2.95;;;1.45;;
72109;SDS011;59983;52.010;5.420;2023-08-31T13:11:42;1.97;;;1.63;;
72109;SDS011;59983;52.010;5.420;2023-08-31T13:14:08;3.25;;;1.63;;
72109;SDS011;59983;52.010;5.420;2023-08-31T13:16:35;2.28;;;1.50;;
72109;SDS011;59983;52.010;5.420;2023-08-31T13:19:03;1.25;;;1.20;;
72109;SDS011;59983;52.010;5.420;2023-08-31T13:21:30;1.40;;;1.23;;
72109;SDS011;59983;52.010;5.420;2023-08-31T13:23:56;4.83;;;2.57;;
72109;SDS011;59983;52.010;5.420;2023-08-31T13:26:23;2.55;;;1.35;;
72109;SDS011;59983;52.010;5.420;2023-08-31T13:28:49;1.63;;;1.52;;
72109;SDS011;59983;52.010;5.420;2023-08-31T13:31:16;3.72;;;1.65;;
72109;SDS011;59983;52.010;5.420;2023-08-31T13:33:42;5.65;;;1.58;;
72109;SDS011;59983;52.010;5.420;2023-08-31T13:36:09;3.73;;;1.90;;
72109;SDS011;59983;52.010;5.420;2023-08-31T13:38:36;1.73;;;1.30;;
72109;SDS011;59983;52.010;5.420;2023-08-31T13:41:02;3.38;;;1.38;;
72109;SDS011;59983;52.010;5.420;2023-08-31T13:43:29;3.58;;;1.25;;
72109;SDS011;59983;52.010;5.420;2023-08-31T13:45:56;2.50;;;1.33;;
72109;SDS011;59983;52.010;5.420;2023-08-31T13:48:23;2.57;;;1.37;;
72109;SDS011;59983;52.010;5.420;2023-08-31T13:50:49;1.50;;;1.13;;
72109;SDS011;59983;52.010;5.420;2023-08-31T13:53:16;2.50;;;1.52;;
72109;SDS011;59983;52.010;5.420;2023-08-31T13:55:42;1.50;;;1.40;;
72109;SDS011;59983;52.010;5.420;2023-08-31T13:58:09;7.30;;;1.60;;
72109;SDS011;59983;52.010;5.420;2023-08-31T14:00:36;3.47;;;1.50;;
72109;SDS011;59983;52.010;5.420;2023-08-31T14:03:03;1.75;;;1.23;;
72109;SDS011;59983;52.010;5.420;2023-08-31T14:05:31;3.00;;;1.92;;
72109;SDS011;59983;52.010;5.420;2023-08-31T14:07:59;2.95;;;1.50;;
72109;SDS011;59983;52.010;5.420;2023-08-31T14:10:30;2.92;;;1.58;;
72109;SDS011;59983;52.010;5.420;2023-08-31T14:12:58;4.73;;;1.90;;
72109;SDS011;59983;52.010;5.420;2023-08-31T14:15:25;5.30;;;1.83;;
72109;SDS011;59983;52.010;5.420;2023-08-31T14:17:53;1.95;;;1.65;;
72109;SDS011;59983;52.010;5.420;2023-08-31T14:20:19;3.13;;;1.67;;
72109;SDS011;59983;52.010;5.420;2023-08-31T14:22:46;2.97;;;1.75;;
72109;SDS011;59983;52.010;5.420;2023-08-31T14:25:13;4.20;;;1.30;;
72109;SDS011;59983;52.010;5.420;2023-08-31T14:27:40;2.20;;;1.83;;
72109;SDS011;59983;52.010;5.420;2023-08-31T14:30:07;2.42;;;1.45;;
72109;SDS011;59983;52.010;5.420;2023-08-31T14:32:34;2.88;;;1.63;;
72109;SDS011;59983;52.010;5.420;2023-08-31T14:35:01;2.78;;;1.40;;
72109;SDS011;59983;52.010;5.420;2023-08-31T14:37:27;3.57;;;1.67;;
72109;SDS011;59983;52.010;5.420;2023-08-31T14:39:54;2.80;;;1.90;;
72109;SDS011;59983;52.010;5.420;2023-08-31T14:42:20;1.67;;;1.40;;
72109;SDS011;59983;52.010;5.420;2023-08-31T14:44:48;6.78;;;1.60;;
72109;SDS011;59983;52.010;5.420;2023-08-31T14:47:15;2.65;;;1.70;;
72109;SDS011;59983;52.010;5.420;2023-08-31T14:49:42;3.37;;;1.60;;
72109;SDS011;59983;52.010;5.420;2023-08-31T14:52:08;1.85;;;1.50;;
72109;SDS011;59983;52.010;5.420;2023-08-31T14:54:35;4.40;;;1.90;;
72109;SDS011;59983;52.010;5.420;2023-08-31T14:57:01;3.25;;;2.00;;
72109;SDS011;59983;52.010;5.420;2023-08-31T14:59:30;3.13;;;1.30;;
72109;SDS011;59983;52.010;5.420;2023-08-31T15:01:56;3.60;;;1.40;;